createdAt,value
2022-12-26T00:00:34.591Z,40.81
2022-12-26T00:01:34.505Z,40.70
2022-12-26T00:02:34.719Z,40.81
2022-12-26T00:03:34.616Z,40.70
2022-12-26T00:04:52.329Z,40.91
2022-12-26T00:05:35.455Z,40.81
2022-12-26T00:06:34.453Z,40.91
2022-12-26T00:07:34.478Z,40.81
2022-12-26T00:08:34.436Z,40.81
2022-12-26T00:09:34.434Z,41.01
2022-12-26T00:10:34.436Z,40.91
2022-12-26T00:11:34.397Z,40.81
2022-12-26T00:12:34.379Z,41.01
2022-12-26T00:13:37.257Z,41.11
2022-12-26T00:14:35.390Z,40.81
2022-12-26T00:15:34.347Z,41.11
2022-12-26T00:16:34.355Z,40.91
2022-12-26T00:17:34.327Z,41.01
2022-12-26T00:18:34.312Z,40.70
2022-12-26T00:19:34.301Z,41.11
2022-12-26T00:20:34.301Z,40.70
2022-12-26T00:21:34.286Z,40.81
2022-12-26T00:22:34.284Z,40.81
2022-12-26T00:23:34.271Z,40.70
2022-12-26T00:24:34.255Z,40.81
2022-12-26T00:25:34.249Z,40.70
2022-12-26T00:26:34.241Z,40.70
2022-12-26T00:27:34.283Z,41.01
2022-12-26T00:28:34.212Z,41.01
2022-12-26T00:29:34.194Z,41.01
2022-12-26T00:30:34.179Z,41.11
2022-12-26T00:31:34.232Z,41.01
2022-12-26T00:32:34.166Z,41.21
2022-12-26T00:33:34.156Z,40.91
2022-12-26T00:34:34.132Z,41.61
2022-12-26T00:35:34.121Z,41.21
2022-12-26T00:36:34.132Z,41.11
2022-12-26T00:37:34.102Z,41.11
2022-12-26T00:38:34.107Z,41.11
2022-12-26T00:39:34.087Z,41.01
2022-12-26T00:40:34.063Z,41.11
2022-12-26T00:41:34.052Z,41.01
2022-12-26T00:42:34.061Z,41.11
2022-12-26T00:43:34.035Z,41.21
2022-12-26T00:44:34.025Z,41.31
2022-12-26T00:45:34.017Z,41.21
2022-12-26T00:46:34.022Z,41.31
2022-12-26T00:47:33.985Z,40.91
2022-12-26T00:48:33.974Z,41.61
2022-12-26T00:50:13.097Z,41.51
2022-12-26T00:50:35.237Z,41.61
2022-12-26T00:51:33.949Z,41.51
2022-12-26T00:52:33.929Z,41.21
2022-12-26T00:53:33.937Z,41.71
2022-12-26T00:54:33.907Z,41.61
2022-12-26T00:55:33.903Z,41.51
2022-12-26T00:56:33.906Z,41.51
2022-12-26T00:57:33.874Z,41.41
2022-12-26T00:58:33.882Z,41.71
2022-12-26T00:59:33.852Z,41.71
2022-12-26T01:00:33.896Z,41.21
2022-12-26T01:01:34.094Z,41.41
2022-12-26T01:02:33.989Z,41.41
2022-12-26T01:03:33.806Z,41.41
2022-12-26T01:04:33.794Z,41.41
2022-12-26T01:05:33.783Z,41.41
2022-12-26T01:06:33.777Z,41.41
2022-12-26T01:07:33.772Z,41.41
2022-12-26T01:08:33.760Z,41.21
2022-12-26T01:09:33.737Z,41.41
2022-12-26T01:10:33.726Z,41.41
2022-12-26T01:11:33.715Z,41.51
2022-12-26T01:12:33.704Z,41.61
2022-12-26T01:13:33.698Z,41.61
2022-12-26T01:14:33.710Z,41.41
2022-12-26T01:15:33.672Z,41.51
2022-12-26T01:16:33.719Z,41.51
2022-12-26T01:17:33.651Z,41.51
2022-12-26T01:18:33.642Z,41.61
2022-12-26T01:19:33.626Z,41.41
2022-12-26T01:20:33.645Z,41.61
2022-12-26T01:21:33.608Z,41.51
2022-12-26T01:22:33.592Z,41.61
2022-12-26T01:23:33.590Z,41.51
2022-12-26T01:24:33.569Z,41.61
2022-12-26T01:25:33.567Z,41.41
2022-12-26T01:26:33.558Z,41.51
2022-12-26T01:27:33.539Z,41.51
2022-12-26T01:28:33.537Z,41.61
2022-12-26T01:29:33.512Z,41.51
2022-12-26T01:30:33.521Z,41.21
2022-12-26T01:31:33.549Z,41.61
2022-12-26T01:32:33.517Z,41.51
2022-12-26T01:33:33.478Z,41.51
2022-12-26T01:34:33.462Z,41.61
2022-12-26T01:35:33.451Z,41.61
2022-12-26T01:36:33.463Z,41.51
2022-12-26T01:37:33.434Z,41.31
2022-12-26T01:38:33.441Z,41.11
2022-12-26T01:39:33.404Z,41.01
2022-12-26T01:40:33.389Z,41.21
2022-12-26T01:41:33.410Z,41.51
2022-12-26T01:42:33.377Z,41.21
2022-12-26T01:43:33.356Z,41.31
2022-12-26T01:44:33.368Z,41.41
2022-12-26T01:45:33.447Z,41.21
2022-12-26T01:46:33.363Z,41.01
2022-12-26T01:47:33.315Z,41.21
2022-12-26T01:48:33.300Z,41.41
2022-12-26T01:49:33.302Z,41.41
2022-12-26T01:50:33.288Z,41.31
2022-12-26T01:51:33.269Z,41.51
2022-12-26T01:52:33.258Z,41.31
2022-12-26T01:53:33.251Z,41.71
2022-12-26T01:54:37.758Z,41.41
2022-12-26T01:55:34.258Z,41.61
2022-12-26T01:56:33.216Z,41.41
2022-12-26T01:57:33.201Z,41.21
2022-12-26T01:58:33.189Z,41.31
2022-12-26T01:59:33.180Z,41.21
2022-12-26T02:00:33.168Z,41.61
2022-12-26T02:01:33.408Z,41.61
2022-12-26T02:02:33.339Z,41.41
2022-12-26T02:03:33.135Z,41.61
2022-12-26T02:04:33.122Z,41.71
2022-12-26T02:05:33.114Z,41.61
2022-12-26T02:06:33.117Z,41.11
2022-12-26T02:07:33.113Z,41.21
2022-12-26T02:08:33.096Z,41.21
2022-12-26T02:09:33.065Z,41.21
2022-12-26T02:10:33.060Z,41.21
2022-12-26T02:11:33.044Z,41.21
2022-12-26T02:12:38.326Z,41.69
2022-12-26T02:13:34.027Z,41.21
2022-12-26T02:14:33.011Z,41.61
2022-12-26T02:15:32.999Z,41.51
2022-12-26T02:16:33.045Z,41.51
2022-12-26T02:17:32.981Z,41.51
2022-12-26T02:18:32.989Z,41.41
2022-12-26T02:19:32.982Z,41.61
2022-12-26T02:20:32.943Z,41.61
2022-12-26T02:21:32.933Z,41.51
2022-12-26T02:22:32.921Z,41.01
2022-12-26T02:23:32.911Z,41.11
2022-12-26T02:24:32.908Z,41.21
2022-12-26T02:25:32.900Z,41.21
2022-12-26T02:26:32.877Z,41.61
2022-12-26T02:27:32.863Z,41.61
2022-12-26T02:28:32.854Z,41.21
2022-12-26T02:29:32.846Z,41.61
2022-12-26T02:30:32.831Z,41.21
2022-12-26T02:31:32.857Z,41.11
2022-12-26T02:32:32.817Z,41.11
2022-12-26T02:33:32.798Z,40.99
2022-12-26T02:34:32.805Z,41.21
2022-12-26T02:35:32.773Z,40.91
2022-12-26T02:36:32.766Z,41.11
2022-12-26T02:37:32.759Z,40.89
2022-12-26T02:38:32.743Z,41.21
2022-12-26T02:39:44.646Z,41.01
2022-12-26T02:40:33.717Z,41.11
2022-12-26T02:41:32.708Z,42.21
2022-12-26T02:42:32.696Z,41.01
2022-12-26T02:43:32.705Z,41.01
2022-12-26T02:44:32.673Z,41.01
2022-12-26T02:45:32.765Z,41.82
2022-12-26T02:46:32.726Z,41.71
2022-12-26T02:47:32.640Z,42.01
2022-12-26T02:48:32.629Z,41.01
2022-12-26T02:49:33.127Z,41.61
2022-12-26T02:50:32.627Z,42.11
2022-12-26T02:51:32.595Z,42.21
2022-12-26T02:52:32.588Z,41.91
2022-12-26T02:53:32.574Z,41.01
2022-12-26T02:54:32.562Z,41.01
2022-12-26T02:55:32.566Z,41.01
2022-12-26T02:56:32.538Z,41.82
2022-12-26T02:57:32.528Z,42.01
2022-12-26T02:58:32.528Z,41.71
2022-12-26T02:59:55.777Z,41.71
2022-12-26T03:00:33.521Z,41.71
2022-12-26T03:01:32.597Z,41.11
2022-12-26T03:02:32.712Z,41.71
2022-12-26T03:03:32.511Z,41.71
2022-12-26T03:04:32.450Z,41.71
2022-12-26T03:05:32.448Z,41.71
2022-12-26T03:06:32.482Z,42.01
2022-12-26T03:07:32.417Z,41.51
2022-12-26T03:08:32.405Z,41.51
2022-12-26T03:09:32.394Z,42.01
2022-12-26T03:10:32.386Z,42.21
2022-12-26T03:11:32.383Z,42.11
2022-12-26T03:12:32.369Z,42.11
2022-12-26T03:13:32.348Z,41.71
2022-12-26T03:14:32.358Z,41.91
2022-12-26T03:15:32.330Z,41.61
2022-12-26T03:16:32.411Z,42.11
2022-12-26T03:17:32.303Z,41.71
2022-12-26T03:18:58.860Z,41.82
2022-12-26T03:19:33.283Z,41.71
2022-12-26T03:20:32.270Z,41.71
2022-12-26T03:21:32.260Z,42.11
2022-12-26T03:22:32.266Z,42.01
2022-12-26T03:23:32.243Z,41.61
2022-12-26T03:24:32.241Z,41.71
2022-12-26T03:25:32.214Z,41.82
2022-12-26T03:26:32.203Z,41.91
2022-12-26T03:27:32.194Z,41.71
2022-12-26T03:28:32.193Z,41.82
2022-12-26T03:29:32.167Z,41.82
2022-12-26T03:30:32.248Z,41.82
2022-12-26T03:31:32.147Z,41.82
2022-12-26T03:32:32.135Z,42.82
2022-12-26T03:33:32.124Z,41.82
2022-12-26T03:34:32.124Z,41.82
2022-12-26T03:35:32.107Z,42.82
2022-12-26T03:36:32.101Z,42.72
2022-12-26T03:37:47.557Z,42.11
2022-12-26T03:38:33.089Z,42.41
2022-12-26T03:39:32.057Z,42.61
2022-12-26T03:40:32.048Z,42.41
2022-12-26T03:41:32.039Z,42.11
2022-12-26T03:42:32.056Z,42.32
2022-12-26T03:43:32.022Z,42.41
2022-12-26T03:44:32.007Z,42.41
2022-12-26T03:45:31.991Z,42.32
2022-12-26T03:46:32.036Z,42.40
2022-12-26T03:47:31.968Z,42.32
2022-12-26T03:48:31.964Z,42.32
2022-12-26T03:49:31.952Z,42.32
2022-12-26T03:50:31.939Z,42.41
2022-12-26T03:51:31.925Z,42.52
2022-12-26T03:52:31.914Z,42.41
2022-12-26T03:53:31.899Z,42.52
2022-12-26T03:54:31.944Z,42.41
2022-12-26T03:55:31.881Z,42.41
2022-12-26T03:56:32.823Z,42.32
2022-12-26T03:57:31.855Z,42.41
2022-12-26T03:58:31.853Z,42.61
2022-12-26T03:59:31.928Z,42.41
2022-12-26T04:00:31.829Z,42.61
2022-12-26T04:01:31.891Z,42.61
2022-12-26T04:02:31.948Z,42.41
2022-12-26T04:03:31.831Z,42.21
2022-12-26T04:04:31.778Z,42.21
2022-12-26T04:05:31.783Z,42.21
2022-12-26T04:06:31.774Z,42.21
2022-12-26T04:07:31.744Z,42.72
2022-12-26T04:08:31.730Z,42.32
2022-12-26T04:09:31.742Z,42.32
2022-12-26T04:10:31.732Z,42.21
2022-12-26T04:11:31.701Z,42.32
2022-12-26T04:12:31.697Z,42.21
2022-12-26T04:13:31.721Z,42.40
2022-12-26T04:14:31.670Z,42.52
2022-12-26T04:15:31.709Z,42.52
2022-12-26T04:16:31.660Z,42.52
2022-12-26T04:17:31.650Z,42.52
2022-12-26T04:18:31.664Z,42.41
2022-12-26T04:19:31.617Z,42.32
2022-12-26T04:20:31.599Z,42.41
2022-12-26T04:21:31.593Z,42.52
2022-12-26T04:22:31.580Z,42.21
2022-12-26T04:23:31.566Z,42.41
2022-12-26T04:24:31.559Z,42.41
2022-12-26T04:25:50.518Z,42.52
2022-12-26T04:26:32.557Z,42.61
2022-12-26T04:27:31.528Z,42.52
2022-12-26T04:28:31.510Z,42.32
2022-12-26T04:29:31.501Z,42.52
2022-12-26T04:30:31.516Z,42.52
2022-12-26T04:31:31.578Z,42.41
2022-12-26T04:32:31.463Z,42.61
2022-12-26T04:33:31.452Z,42.72
2022-12-26T04:34:31.456Z,42.82
2022-12-26T04:35:31.429Z,42.72
2022-12-26T04:36:31.449Z,42.21
2022-12-26T04:37:31.409Z,42.32
2022-12-26T04:38:31.405Z,42.69
2022-12-26T04:39:31.385Z,42.32
2022-12-26T04:40:31.373Z,42.41
2022-12-26T04:41:31.363Z,42.72
2022-12-26T04:42:31.391Z,42.82
2022-12-26T04:43:50.115Z,42.21
2022-12-26T04:44:32.334Z,42.52
2022-12-26T04:45:31.320Z,42.72
2022-12-26T04:46:31.458Z,42.61
2022-12-26T04:47:31.297Z,42.61
2022-12-26T04:48:31.291Z,42.30
2022-12-26T04:49:31.286Z,42.32
2022-12-26T04:50:31.263Z,42.49
2022-12-26T04:51:31.250Z,42.72
2022-12-26T04:52:31.238Z,42.52
2022-12-26T04:53:31.235Z,42.52
2022-12-26T04:54:31.729Z,42.72
2022-12-26T04:55:31.206Z,42.32
2022-12-26T04:56:31.205Z,42.32
2022-12-26T04:57:31.183Z,42.32
2022-12-26T04:58:31.189Z,42.32
2022-12-26T04:59:31.162Z,42.52
2022-12-26T05:00:31.160Z,42.52
2022-12-26T05:01:31.218Z,42.52
2022-12-26T05:02:31.251Z,42.41
2022-12-26T05:03:31.174Z,42.52
2022-12-26T05:04:31.113Z,42.41
2022-12-26T05:05:31.093Z,42.32
2022-12-26T05:06:31.087Z,42.30
2022-12-26T05:07:31.072Z,42.32
2022-12-26T05:08:31.060Z,42.21
2022-12-26T05:09:31.048Z,42.52
2022-12-26T05:10:31.039Z,42.41
2022-12-26T05:11:31.028Z,42.72
2022-12-26T05:12:31.030Z,42.72
2022-12-26T05:13:31.003Z,42.32
2022-12-26T05:14:31.011Z,42.52
2022-12-26T05:15:31.005Z,42.52
2022-12-26T05:16:31.020Z,42.52
2022-12-26T05:17:30.971Z,42.52
2022-12-26T05:18:30.953Z,42.52
2022-12-26T05:19:30.941Z,42.69
2022-12-26T05:20:30.942Z,42.72
2022-12-26T05:21:30.914Z,42.52
2022-12-26T05:22:30.911Z,42.41
2022-12-26T05:23:30.893Z,42.41
2022-12-26T05:24:30.889Z,42.52
2022-12-26T05:25:30.872Z,42.11
2022-12-26T05:26:30.857Z,42.52
2022-12-26T05:27:30.851Z,42.21
2022-12-26T05:28:30.834Z,42.61
2022-12-26T05:29:30.823Z,42.61
2022-12-26T05:30:30.840Z,42.61
2022-12-26T05:31:35.463Z,42.21
2022-12-26T05:32:31.789Z,42.72
2022-12-26T05:33:30.782Z,42.92
2022-12-26T05:34:30.786Z,42.11
2022-12-26T05:35:30.756Z,42.52
2022-12-26T05:36:30.768Z,43.02
2022-12-26T05:37:30.742Z,42.21
2022-12-26T05:38:30.744Z,42.32
2022-12-26T05:39:30.714Z,42.61
2022-12-26T05:40:30.710Z,42.32
2022-12-26T05:41:30.701Z,42.52
2022-12-26T05:42:30.712Z,42.21
2022-12-26T05:43:30.669Z,42.32
2022-12-26T05:44:30.661Z,42.21
2022-12-26T05:45:30.660Z,42.41
2022-12-26T05:46:30.760Z,42.41
2022-12-26T05:47:30.624Z,42.41
2022-12-26T05:48:30.635Z,42.52
2022-12-26T05:49:30.600Z,42.41
2022-12-26T05:50:30.601Z,42.41
2022-12-26T05:51:30.593Z,42.41
2022-12-26T05:52:30.566Z,42.41
2022-12-26T05:53:30.561Z,42.52
2022-12-26T05:54:30.562Z,42.41
2022-12-26T05:55:30.533Z,42.41
2022-12-26T05:56:30.544Z,42.41
2022-12-26T05:57:30.519Z,42.41
2022-12-26T05:58:30.499Z,42.52
2022-12-26T05:59:30.487Z,42.41
2022-12-26T06:00:30.514Z,42.52
2022-12-26T06:01:30.889Z,42.21
2022-12-26T06:02:30.645Z,42.52
2022-12-26T06:03:30.518Z,42.61
2022-12-26T06:04:30.466Z,42.41
2022-12-26T06:05:30.440Z,42.21
2022-12-26T06:06:30.472Z,42.41
2022-12-26T06:07:30.401Z,42.52
2022-12-26T06:08:30.385Z,42.52
2022-12-26T06:09:30.431Z,42.41
2022-12-26T06:10:30.394Z,42.61
2022-12-26T06:11:30.372Z,42.92
2022-12-26T06:12:30.407Z,42.61
2022-12-26T06:13:30.347Z,43.02
2022-12-26T06:14:30.334Z,42.32
2022-12-26T06:15:30.330Z,42.61
2022-12-26T06:16:30.423Z,42.52
2022-12-26T06:17:30.302Z,42.41
2022-12-26T06:18:30.309Z,42.52
2022-12-26T06:19:30.263Z,42.41
2022-12-26T06:20:30.258Z,43.02
2022-12-26T06:21:30.243Z,42.61
2022-12-26T06:22:30.275Z,43.02
2022-12-26T06:23:30.235Z,42.72
2022-12-26T06:24:30.226Z,43.02
2022-12-26T06:25:30.205Z,42.72
2022-12-26T06:26:30.187Z,42.52
2022-12-26T06:27:30.192Z,42.49
2022-12-26T06:28:30.163Z,42.92
2022-12-26T06:29:30.154Z,42.72
2022-12-26T06:30:30.153Z,42.82
2022-12-26T06:31:30.196Z,42.41
2022-12-26T06:32:30.121Z,42.82
2022-12-26T06:33:30.108Z,43.02
2022-12-26T06:34:30.117Z,42.61
2022-12-26T06:35:30.084Z,42.82
2022-12-26T06:36:30.107Z,42.61
2022-12-26T06:37:30.062Z,42.92
2022-12-26T06:38:30.051Z,42.61
2022-12-26T06:39:30.045Z,42.82
2022-12-26T06:40:30.038Z,42.92
2022-12-26T06:41:30.031Z,42.92
2022-12-26T06:42:30.049Z,42.92
2022-12-26T06:43:30.006Z,42.92
2022-12-26T06:44:30.020Z,42.92
2022-12-26T06:45:29.973Z,42.82
2022-12-26T06:46:29.999Z,42.92
2022-12-26T06:47:29.951Z,43.02
2022-12-26T06:48:29.946Z,42.82
2022-12-26T06:49:32.940Z,43.12
2022-12-26T06:50:29.939Z,43.02
2022-12-26T06:51:29.911Z,42.92
2022-12-26T06:52:29.904Z,42.92
2022-12-26T06:53:29.892Z,42.69
2022-12-26T06:54:29.878Z,42.82
2022-12-26T06:55:29.861Z,42.92
2022-12-26T06:56:29.849Z,42.82
2022-12-26T06:57:29.855Z,42.92
2022-12-26T06:58:29.830Z,43.02
2022-12-26T06:59:29.817Z,43.02
2022-12-26T07:00:29.948Z,42.92
2022-12-26T07:01:29.943Z,43.02
2022-12-26T07:02:29.884Z,43.12
2022-12-26T07:03:29.771Z,42.72
2022-12-26T07:04:29.760Z,42.41
2022-12-26T07:05:29.754Z,42.82
2022-12-26T07:06:29.769Z,42.52
2022-12-26T07:07:29.731Z,43.12
2022-12-26T07:08:29.714Z,42.69
2022-12-26T07:09:33.593Z,42.72
2022-12-26T07:10:29.723Z,42.82
2022-12-26T07:11:29.698Z,43.12
2022-12-26T07:12:29.713Z,42.92
2022-12-26T07:13:29.662Z,43.12
2022-12-26T07:14:29.649Z,42.72
2022-12-26T07:15:29.637Z,42.92
2022-12-26T07:16:29.661Z,42.69
2022-12-26T07:17:29.634Z,42.82
2022-12-26T07:18:29.644Z,43.12
2022-12-26T07:19:29.589Z,43.22
2022-12-26T07:20:29.646Z,42.72
2022-12-26T07:21:33.438Z,42.92
2022-12-26T07:22:30.579Z,43.02
2022-12-26T07:23:29.547Z,42.92
2022-12-26T07:24:29.551Z,42.72
2022-12-26T07:25:29.524Z,42.61
2022-12-26T07:26:29.534Z,42.72
2022-12-26T07:27:29.519Z,42.52
2022-12-26T07:28:29.500Z,42.41
2022-12-26T07:29:29.481Z,42.52
2022-12-26T07:30:29.569Z,42.52
2022-12-26T07:31:29.551Z,42.61
2022-12-26T07:32:29.449Z,42.52
2022-12-26T07:33:29.464Z,42.82
2022-12-26T07:34:31.642Z,42.49
2022-12-26T07:35:29.414Z,42.41
2022-12-26T07:36:29.416Z,42.52
2022-12-26T07:37:29.393Z,42.52
2022-12-26T07:38:29.409Z,42.61
2022-12-26T07:39:29.374Z,42.82
2022-12-26T07:40:29.509Z,42.61
2022-12-26T07:41:29.348Z,42.52
2022-12-26T07:42:29.359Z,42.61
2022-12-26T07:43:29.327Z,42.52
2022-12-26T07:44:29.346Z,42.72
2022-12-26T07:45:29.323Z,42.52
2022-12-26T07:46:29.385Z,42.52
2022-12-26T07:47:29.282Z,42.52
2022-12-26T07:48:29.306Z,42.61
2022-12-26T07:49:29.259Z,42.52
2022-12-26T07:50:29.299Z,42.52
2022-12-26T07:51:29.234Z,42.52
2022-12-26T07:52:29.221Z,42.61
2022-12-26T07:53:29.211Z,42.61
2022-12-26T07:54:29.244Z,42.72
2022-12-26T07:55:29.189Z,42.61
2022-12-26T07:56:29.178Z,42.72
2022-12-26T07:58:30.159Z,42.52
2022-12-26T07:59:29.158Z,42.82
2022-12-26T08:00:29.635Z,42.92
2022-12-26T08:01:29.308Z,42.61
2022-12-26T08:02:29.310Z,42.72
2022-12-26T08:03:29.221Z,42.52
2022-12-26T08:04:29.093Z,42.72
2022-12-26T08:05:29.079Z,42.61
2022-12-26T08:06:29.077Z,42.61
2022-12-26T08:07:29.056Z,42.72
2022-12-26T08:08:29.044Z,42.52
2022-12-26T08:09:29.032Z,42.52
2022-12-26T08:10:29.061Z,42.41
2022-12-26T08:11:29.009Z,42.52
2022-12-26T08:12:29.018Z,42.72
2022-12-26T08:13:28.986Z,42.72
2022-12-26T08:14:28.995Z,42.82
2022-12-26T08:15:28.964Z,43.12
2022-12-26T08:16:29.027Z,42.72
2022-12-26T08:17:28.942Z,42.92
2022-12-26T08:18:28.938Z,43.02
2022-12-26T08:19:28.921Z,42.72
2022-12-26T08:20:28.911Z,42.92
2022-12-26T08:21:28.898Z,43.02
2022-12-26T08:22:28.890Z,42.92
2022-12-26T08:23:28.877Z,42.92
2022-12-26T08:24:28.895Z,42.82
2022-12-26T08:25:28.856Z,43.02
2022-12-26T08:26:28.859Z,42.69
2022-12-26T08:27:28.831Z,42.82
2022-12-26T08:28:28.824Z,43.02
2022-12-26T08:29:28.819Z,43.00
2022-12-26T08:30:28.802Z,43.12
2022-12-26T08:31:28.791Z,43.02
2022-12-26T08:32:28.782Z,43.02
2022-12-26T08:33:28.762Z,43.02
2022-12-26T08:34:28.753Z,42.72
2022-12-26T08:35:28.741Z,42.92
2022-12-26T08:36:28.735Z,42.82
2022-12-26T08:37:28.741Z,42.52
2022-12-26T08:38:31.644Z,42.72
2022-12-26T08:39:28.699Z,42.82
2022-12-26T08:40:42.665Z,42.82
2022-12-26T08:41:29.680Z,42.52
2022-12-26T08:42:28.687Z,42.69
2022-12-26T08:44:29.653Z,42.92
2022-12-26T08:45:28.627Z,42.52
2022-12-26T08:46:28.620Z,42.72
2022-12-26T08:47:28.622Z,42.52
2022-12-26T08:48:28.594Z,42.82
2022-12-26T08:49:28.582Z,42.82
2022-12-26T08:50:28.579Z,42.52
2022-12-26T08:51:28.562Z,42.92
2022-12-26T08:52:28.549Z,42.72
2022-12-26T08:53:28.546Z,42.72
2022-12-26T08:54:28.529Z,42.72
2022-12-26T08:55:28.516Z,42.72
2022-12-26T08:56:28.511Z,42.82
2022-12-26T08:57:28.493Z,42.41
2022-12-26T08:58:28.592Z,42.92
2022-12-26T08:59:28.516Z,42.69
2022-12-26T09:00:28.459Z,42.82
2022-12-26T09:01:28.649Z,42.49
2022-12-26T09:02:28.571Z,42.80
2022-12-26T09:03:28.444Z,42.82
2022-12-26T09:04:28.415Z,42.82
2022-12-26T09:05:28.411Z,42.30
2022-12-26T09:06:28.392Z,42.21
2022-12-26T09:07:28.381Z,42.19
2022-12-26T09:08:28.370Z,42.72
2022-12-26T09:09:28.357Z,42.69
2022-12-26T09:10:28.347Z,42.82
2022-12-26T09:11:28.342Z,42.69
2022-12-26T09:12:28.334Z,42.92
2022-12-26T09:13:28.317Z,42.69
2022-12-26T09:14:28.324Z,42.69
2022-12-26T09:15:28.291Z,42.32
2022-12-26T09:16:32.732Z,42.40
2022-12-26T09:17:29.306Z,42.69
2022-12-26T09:18:28.255Z,42.69
2022-12-26T09:19:28.245Z,42.40
2022-12-26T09:20:28.251Z,42.40
2022-12-26T09:21:28.239Z,42.69
2022-12-26T09:22:33.398Z,42.90
2022-12-26T09:23:29.221Z,42.69
2022-12-26T09:24:28.189Z,42.19
2022-12-26T09:25:28.185Z,42.72
2022-12-26T09:26:28.199Z,42.80
2022-12-26T09:27:28.158Z,42.60
2022-12-26T09:28:28.145Z,42.72
2022-12-26T09:29:28.147Z,42.69
2022-12-26T09:30:28.150Z,42.82
2022-12-26T09:31:28.191Z,42.82
2022-12-26T09:32:28.104Z,42.49
2022-12-26T09:33:28.090Z,42.40
2022-12-26T09:34:28.078Z,43.10
2022-12-26T09:35:28.084Z,42.90
2022-12-26T09:36:28.056Z,43.20
2022-12-26T09:37:28.045Z,43.42
2022-12-26T09:38:28.036Z,42.90
2022-12-26T09:39:28.022Z,42.92
2022-12-26T09:40:28.014Z,42.82
2022-12-26T09:41:28.028Z,42.82
2022-12-26T09:42:27.989Z,43.40
2022-12-26T09:43:27.977Z,43.30
2022-12-26T09:44:27.968Z,43.22
2022-12-26T09:45:27.957Z,42.92
2022-12-26T09:46:28.001Z,43.42
2022-12-26T09:47:27.940Z,43.40
2022-12-26T09:48:27.928Z,43.42
2022-12-26T09:49:27.912Z,42.90
2022-12-26T09:50:27.906Z,42.90
2022-12-26T09:51:27.888Z,43.42
2022-12-26T09:52:27.876Z,43.22
2022-12-26T09:53:27.879Z,43.42
2022-12-26T09:54:27.856Z,43.40
2022-12-26T09:55:27.840Z,42.92
2022-12-26T09:57:28.825Z,42.90
2022-12-26T09:58:27.807Z,43.40
2022-12-26T09:59:27.805Z,43.12
2022-12-26T10:00:27.783Z,43.10
2022-12-26T10:01:27.869Z,43.10
2022-12-26T10:02:27.918Z,43.12
2022-12-26T10:03:27.760Z,42.80
2022-12-26T10:04:30.008Z,43.10
2022-12-26T10:05:27.781Z,43.00
2022-12-26T10:06:27.723Z,43.12
2022-12-26T10:07:27.707Z,43.00
2022-12-26T10:08:27.697Z,43.02
2022-12-26T10:09:27.686Z,42.92
2022-12-26T10:10:27.683Z,43.00
2022-12-26T10:11:27.681Z,43.00
2022-12-26T10:12:27.654Z,42.92
2022-12-26T10:13:27.640Z,43.00
2022-12-26T10:14:27.629Z,42.90
2022-12-26T10:15:27.619Z,43.00
2022-12-26T10:16:27.606Z,42.90
2022-12-26T10:17:27.607Z,43.12
2022-12-26T10:18:27.603Z,43.12
2022-12-26T10:19:32.492Z,42.80
2022-12-26T10:20:28.567Z,43.22
2022-12-26T10:21:27.555Z,43.40
2022-12-26T10:22:27.540Z,43.40
2022-12-26T10:23:27.535Z,43.10
2022-12-26T10:24:27.519Z,43.22
2022-12-26T10:25:33.457Z,43.40
2022-12-26T10:26:28.493Z,43.50
2022-12-26T10:27:27.484Z,43.62
2022-12-26T10:28:27.471Z,43.12
2022-12-26T10:29:27.479Z,42.90
2022-12-26T10:30:27.454Z,43.10
2022-12-26T10:31:27.452Z,43.10
2022-12-26T10:32:28.223Z,43.50
2022-12-26T10:33:27.423Z,43.22
2022-12-26T10:34:27.432Z,43.60
2022-12-26T10:35:27.400Z,43.40
2022-12-26T10:36:27.387Z,42.80
2022-12-26T10:37:27.378Z,43.10
2022-12-26T10:38:27.940Z,43.02
2022-12-26T10:39:27.346Z,42.80
2022-12-26T10:40:27.343Z,43.30
2022-12-26T10:41:27.358Z,43.10
2022-12-26T10:42:27.328Z,43.40
2022-12-26T10:43:27.308Z,43.32
2022-12-26T10:44:27.964Z,43.12
2022-12-26T10:45:27.282Z,43.52
2022-12-26T10:46:27.299Z,43.02
2022-12-26T10:47:27.280Z,42.90
2022-12-26T10:48:27.260Z,43.12
2022-12-26T10:49:27.238Z,42.82
2022-12-26T10:50:28.016Z,42.80
2022-12-26T10:51:27.223Z,42.90
2022-12-26T10:52:27.203Z,43.02
2022-12-26T10:53:27.197Z,43.30
2022-12-26T10:54:27.182Z,43.12
2022-12-26T10:55:31.671Z,43.12
2022-12-26T10:56:28.192Z,43.52
2022-12-26T10:57:27.148Z,43.42
2022-12-26T10:58:27.136Z,43.40
2022-12-26T10:59:27.211Z,43.60
2022-12-26T11:00:27.117Z,43.32
2022-12-26T11:01:27.233Z,43.30
2022-12-26T11:02:27.274Z,43.30
2022-12-26T11:03:27.203Z,43.50
2022-12-26T11:05:48.853Z,43.32
2022-12-26T11:06:28.067Z,43.50
2022-12-26T11:07:27.035Z,43.40
2022-12-26T11:08:27.056Z,43.50
2022-12-26T11:09:27.018Z,43.30
2022-12-26T11:10:27.012Z,43.30
2022-12-26T11:11:27.031Z,43.62
2022-12-26T11:12:26.984Z,43.60
2022-12-26T11:13:26.969Z,43.60
2022-12-26T11:14:31.747Z,43.30
2022-12-26T11:15:27.960Z,43.30
2022-12-26T11:16:26.939Z,43.32
2022-12-26T11:17:26.953Z,43.50
2022-12-26T11:18:26.919Z,43.62
2022-12-26T11:19:26.905Z,43.50
2022-12-26T11:20:26.903Z,43.32
2022-12-26T11:21:26.882Z,43.10
2022-12-26T11:22:26.896Z,43.20
2022-12-26T11:23:26.877Z,43.12
2022-12-26T11:24:26.846Z,43.40
2022-12-26T11:25:26.840Z,43.42
2022-12-26T11:26:26.830Z,43.52
2022-12-26T11:27:26.812Z,43.60
2022-12-26T11:28:26.804Z,43.60
2022-12-26T11:29:26.796Z,43.62
2022-12-26T11:30:26.791Z,43.42
2022-12-26T11:31:26.921Z,43.10
2022-12-26T11:32:26.756Z,43.10
2022-12-26T11:33:26.747Z,43.40
2022-12-26T11:34:26.735Z,43.50
2022-12-26T11:35:26.739Z,43.32
2022-12-26T11:36:26.715Z,43.30
2022-12-26T11:37:26.707Z,43.40
2022-12-26T11:38:26.709Z,43.40
2022-12-26T11:39:26.677Z,43.50
2022-12-26T11:40:26.671Z,43.52
2022-12-26T11:41:26.685Z,43.52
2022-12-26T11:42:26.647Z,43.50
2022-12-26T11:43:26.631Z,43.12
2022-12-26T11:44:26.620Z,43.50
2022-12-26T11:45:26.615Z,43.30
2022-12-26T11:46:26.624Z,43.12
2022-12-26T11:47:26.592Z,43.20
2022-12-26T11:48:26.580Z,43.40
2022-12-26T11:49:26.599Z,43.40
2022-12-26T11:50:26.554Z,43.20
2022-12-26T11:51:26.544Z,43.42
2022-12-26T11:52:26.530Z,43.10
2022-12-26T11:53:26.557Z,43.50
2022-12-26T11:54:26.526Z,43.12
2022-12-26T11:55:26.505Z,43.40
2022-12-26T11:56:26.490Z,43.62
2022-12-26T11:57:26.479Z,43.30
2022-12-26T11:58:26.463Z,43.40
2022-12-26T11:59:26.461Z,43.10
2022-12-26T12:00:26.467Z,43.10
2022-12-26T12:01:26.500Z,42.90
2022-12-26T12:02:26.503Z,42.90
2022-12-26T12:03:26.466Z,43.02
2022-12-26T12:04:26.396Z,43.00
2022-12-26T12:05:26.392Z,43.10
2022-12-26T12:06:26.378Z,43.02
2022-12-26T12:07:26.370Z,43.20
2022-12-26T12:08:26.361Z,43.00
2022-12-26T12:09:26.342Z,42.92
2022-12-26T12:10:26.350Z,43.10
2022-12-26T12:11:26.348Z,43.00
2022-12-26T12:12:26.309Z,43.10
2022-12-26T12:13:26.300Z,43.02
2022-12-26T12:14:26.283Z,43.10
2022-12-26T12:15:26.274Z,43.00
2022-12-26T12:16:26.317Z,43.10
2022-12-26T12:17:26.271Z,43.12
2022-12-26T12:18:26.240Z,43.10
2022-12-26T12:19:26.231Z,42.82
2022-12-26T12:20:26.218Z,43.00
2022-12-26T12:21:26.208Z,43.00
2022-12-26T12:22:26.196Z,43.20
2022-12-26T12:23:26.189Z,43.22
2022-12-26T12:24:26.171Z,43.00
2022-12-26T12:25:26.164Z,42.90
2022-12-26T12:26:26.189Z,43.02
2022-12-26T12:27:26.139Z,43.02
2022-12-26T12:28:26.128Z,43.00
2022-12-26T12:29:26.140Z,43.00
2022-12-26T12:30:26.108Z,43.00
2022-12-26T12:31:26.141Z,43.00
2022-12-26T12:32:26.085Z,43.50
2022-12-26T12:33:26.077Z,43.40
2022-12-26T12:34:26.063Z,43.00
2022-12-26T12:35:26.080Z,42.80
2022-12-26T12:36:26.038Z,43.12
2022-12-26T12:37:26.029Z,43.02
2022-12-26T12:38:26.022Z,43.00
2022-12-26T12:39:26.004Z,42.90
2022-12-26T12:40:26.000Z,42.90
2022-12-26T12:41:26.006Z,43.40
2022-12-26T12:42:26.001Z,42.90
2022-12-26T12:43:25.961Z,43.12
2022-12-26T12:44:25.952Z,43.20
2022-12-26T12:45:25.965Z,43.02
2022-12-26T12:46:25.930Z,43.02
2022-12-26T12:47:25.936Z,43.00
2022-12-26T12:48:25.903Z,43.00
2022-12-26T12:49:25.894Z,43.00
2022-12-26T12:50:25.881Z,43.00
2022-12-26T12:51:25.868Z,43.02
2022-12-26T12:52:25.859Z,42.90
2022-12-26T12:53:25.859Z,43.00
2022-12-26T12:54:25.846Z,43.12
2022-12-26T12:55:25.823Z,43.22
2022-12-26T12:56:25.816Z,42.80